Time;durP1;ratioP1;P1;durP2;ratioP2;P2;SDS_P1;SDS_P2;PMS_P1;PMS_P2;Temp;Humidity;BMP_temperature;BMP_pressure;BME280_temperature;BME280_humidity;BME280_pressure;Samples;Min_cycle;Max_cycle;Signal;HPM_P1;HPM_P2
2022/11/21 00:01:59;;;;;;;43.88;27.25;;;3.60;99.90;;;;;;5071172;28;20482;-75
2022/11/21 00:04:24;;;;;;;50.10;26.20;;;3.70;99.90;;;;;;5070940;28;20516;-72
2022/11/21 00:06:51;;;;;;;39.22;24.77;;;3.60;99.90;;;;;;5071128;28;20365;-72
2022/11/21 00:09:17;;;;;;;46.17;25.73;;;3.60;99.90;;;;;;5071688;28;20474;-72
2022/11/21 00:11:42;;;;;;;51.60;27.42;;;3.70;99.90;;;;;;5070736;28;20028;-73
2022/11/21 00:14:08;;;;;;;58.15;28.90;;;3.70;99.90;;;;;;5071021;28;20020;-74
2022/11/21 00:16:33;;;;;;;51.28;28.48;;;3.70;99.90;;;;;;5071749;28;20031;-73
2022/11/21 00:18:59;;;;;;;51.78;28.15;;;3.70;99.90;;;;;;5073639;28;20444;-73
2022/11/21 00:21:24;;;;;;;51.45;27.45;;;3.70;99.90;;;;;;5075318;28;20021;-73
2022/11/21 00:23:51;;;;;;;45.35;25.48;;;3.70;99.90;;;;;;5074700;28;20440;-73
2022/11/21 00:26:17;;;;;;;46.33;25.67;;;3.70;99.90;;;;;;5074046;28;20031;-73
2022/11/21 00:28:43;;;;;;;49.00;26.45;;;3.70;99.90;;;;;;5063122;28;20028;-74
2022/11/21 00:31:16;;;;;;;52.60;29.27;;;3.70;99.90;;;;;;5071917;28;20366;-73
2022/11/21 00:33:42;;;;;;;48.10;26.65;;;3.70;99.90;;;;;;5074038;28;20476;-73
2022/11/21 00:36:08;;;;;;;57.08;28.33;;;3.60;99.90;;;;;;5074235;28;20052;-73
2022/11/21 00:38:34;;;;;;;52.47;28.50;;;3.70;99.90;;;;;;5074532;28;20020;-73
2022/11/21 00:41:00;;;;;;;48.13;28.02;;;3.70;99.90;;;;;;5073297;28;20510;-71
2022/11/21 00:43:25;;;;;;;53.67;28.73;;;3.70;99.90;;;;;;5074173;28;20012;-72
2022/11/21 00:45:51;;;;;;;59.20;29.92;;;3.70;99.90;;;;;;5074101;28;20025;-72
2022/11/21 00:48:16;;;;;;;56.05;30.88;;;3.70;99.90;;;;;;5073423;28;20457;-73
2022/11/21 00:50:42;;;;;;;57.85;30.08;;;3.70;99.90;;;;;;5074616;28;20017;-73
2022/11/21 00:53:07;;;;;;;59.08;30.95;;;3.60;99.90;;;;;;5073378;28;20388;-73
2022/11/21 00:55:35;;;;;;;62.38;32.60;;;3.60;99.90;;;;;;5074211;28;20354;-73
2022/11/21 00:58:01;;;;;;;60.85;31.98;;;3.60;99.90;;;;;;5074183;28;20075;-72
2022/11/21 01:00:26;;;;;;;57.33;30.85;;;3.60;99.90;;;;;;5074586;28;20485;-72
2022/11/21 01:02:52;;;;;;;64.07;33.17;;;3.60;99.90;;;;;;5077654;28;20484;-73
2022/11/21 01:05:17;;;;;;;61.65;31.15;;;3.70;99.90;;;;;;5075867;28;20017;-73
2022/11/21 01:07:43;;;;;;;61.85;31.73;;;3.60;99.90;;;;;;5074444;28;20028;-74
2022/11/21 01:10:11;;;;;;;62.83;31.30;;;3.60;99.90;;;;;;5074569;28;20625;-73
2022/11/21 01:12:37;;;;;;;62.13;31.38;;;3.60;99.90;;;;;;5073918;28;20033;-73
2022/11/21 01:15:03;;;;;;;69.20;32.83;;;3.60;99.90;;;;;;5073039;28;20032;-72
2022/11/21 01:17:31;;;;;;;73.07;34.75;;;3.60;99.90;;;;;;5074087;28;20431;-74
2022/11/21 01:19:57;;;;;;;68.78;32.72;;;3.60;99.90;;;;;;5073713;28;20027;-73
2022/11/21 01:22:22;;;;;;;68.85;32.55;;;3.60;99.90;;;;;;5072680;28;20021;-73
2022/11/21 01:24:48;;;;;;;63.40;32.10;;;3.60;99.90;;;;;;5073975;28;20104;-73
2022/11/21 01:27:13;;;;;;;71.95;31.55;;;3.60;99.90;;;;;;5073448;28;20491;-72
2022/11/21 01:29:39;;;;;;;60.17;30.05;;;3.50;99.90;;;;;;5063524;28;20468;-74
2022/11/21 01:32:04;;;;;;;62.38;31.70;;;3.60;99.90;;;;;;5075379;28;20024;-72
2022/11/21 01:34:30;;;;;;;53.90;29.08;;;3.50;99.90;;;;;;5074052;28;20020;-73
2022/11/21 01:37:01;;;;;;;61.03;31.98;;;3.60;99.90;;;;;;5073919;28;20105;-72
2022/11/21 01:39:26;;;;;;;55.63;27.75;;;3.60;99.90;;;;;;5080152;28;20456;-73
2022/11/21 01:41:52;;;;;;;70.53;32.63;;;3.60;99.90;;;;;;5080009;28;20069;-73
2022/11/21 01:44:26;;;;;;;59.95;30.08;;;3.60;99.90;;;;;;5085647;28;20016;-72
2022/11/21 01:46:52;;;;;;;70.45;33.58;;;3.60;99.90;;;;;;5079752;28;20062;-73
2022/11/21 01:49:27;;;;;;;75.75;34.60;;;3.60;99.90;;;;;;5085161;28;20031;-73
2022/11/21 01:52:09;;;;;;;94.00;38.13;;;3.60;99.90;;;;;;5079689;28;20055;-73
2022/11/21 01:54:47;;;;;;;71.22;32.55;;;3.60;99.90;;;;;;5085612;28;20035;-72
2022/11/21 01:57:24;;;;;;;80.72;34.45;;;3.60;99.90;;;;;;5078867;28;20476;-74
2022/11/21 02:00:16;;;;;;;69.88;32.95;;;3.60;99.90;;;;;;5083862;28;20111;-72
2022/11/21 02:02:46;;;;;;;67.93;31.17;;;3.60;99.90;;;;;;5083891;28;20074;-73
2022/11/21 02:05:18;;;;;;;69.13;32.03;;;3.50;99.90;;;;;;5081157;28;20020;-72
2022/11/21 02:07:46;;;;;;;67.40;32.58;;;3.50;99.90;;;;;;5083157;28;20395;-73
2022/11/21 02:10:12;;;;;;;71.05;32.20;;;3.60;99.90;;;;;;5082060;28;20016;-74
2022/11/21 02:12:52;;;;;;;69.40;31.63;;;3.60;99.90;;;;;;5079819;28;20506;-73
2022/11/21 02:15:20;;;;;;;63.30;30.17;;;3.50;99.90;;;;;;5081909;28;20507;-73
2022/11/21 02:17:46;;;;;;;63.15;29.92;;;3.50;99.90;;;;;;5080245;28;20210;-74
2022/11/21 02:20:15;;;;;;;72.97;33.65;;;3.60;99.90;;;;;;5083208;28;20539;-73
2022/11/21 02:23:02;;;;;;;116.10;35.20;;;3.60;99.90;;;;;;5079230;28;20174;-73
2022/11/21 02:25:36;;;;;;;62.53;32.15;;;3.60;99.90;;;;;;5081246;28;20024;-73
2022/11/21 02:28:07;;;;;;;63.08;30.95;;;3.60;99.90;;;;;;5073039;28;20075;-72
2022/11/21 02:30:36;;;;;;;110.05;31.83;;;3.60;99.90;;;;;;5064877;28;20028;-73
2022/11/21 02:33:02;;;;;;;67.90;30.38;;;3.60;99.90;;;;;;5071207;28;20064;-73
2022/11/21 02:35:28;;;;;;;80.82;32.00;;;3.50;99.90;;;;;;5072162;28;20080;-73
2022/11/21 02:38:01;;;;;;;53.60;28.83;;;3.50;99.90;;;;;;5072088;28;20438;-73
2022/11/21 02:40:33;;;;;;;64.57;30.55;;;3.60;99.90;;;;;;5071515;28;20020;-72
2022/11/21 02:43:09;;;;;;;57.95;29.38;;;3.60;99.90;;;;;;5072181;28;20074;-72
2022/11/21 02:45:38;;;;;;;63.83;30.27;;;3.60;99.90;;;;;;5072010;28;20024;-73
2022/11/21 02:48:04;;;;;;;59.90;28.98;;;3.60;99.90;;;;;;5071883;28;20441;-73
2022/11/21 02:50:35;;;;;;;54.35;28.00;;;3.60;99.90;;;;;;5072140;28;20158;-73
2022/11/21 02:53:02;;;;;;;57.72;29.10;;;3.60;99.90;;;;;;5071124;28;20464;-73
2022/11/21 02:55:27;;;;;;;63.30;28.23;;;3.60;99.90;;;;;;5072571;28;20017;-73
2022/11/21 02:57:53;;;;;;;51.45;26.77;;;3.60;99.90;;;;;;5072303;28;20072;-73
2022/11/21 03:00:19;;;;;;;75.47;29.50;;;3.60;99.90;;;;;;5071600;28;20031;-73
2022/11/21 03:02:45;;;;;;;57.65;27.70;;;3.70;99.90;;;;;;5072343;28;20025;-73
2022/11/21 03:05:14;;;;;;;53.55;27.58;;;3.70;99.90;;;;;;5072042;28;20048;-72
2022/11/21 03:07:40;;;;;;;60.20;29.52;;;3.70;99.90;;;;;;5071065;28;20399;-72
2022/11/21 03:10:05;;;;;;;52.78;26.38;;;3.70;99.90;;;;;;5070915;28;20032;-73
2022/11/21 03:12:31;;;;;;;51.95;26.45;;;3.70;99.90;;;;;;5071853;28;20028;-72
2022/11/21 03:14:56;;;;;;;52.92;28.25;;;3.70;99.90;;;;;;5070667;28;20028;-73
2022/11/21 03:17:25;;;;;;;57.75;29.98;;;3.70;99.90;;;;;;5072128;28;20023;-73
2022/11/21 03:19:51;;;;;;;75.68;29.88;;;3.70;99.90;;;;;;5071910;28;20035;-72
2022/11/21 03:22:16;;;;;;;110.63;31.67;;;3.70;99.90;;;;;;5071336;28;20213;-74
2022/11/21 03:25:02;;;;;;;71.97;30.67;;;3.70;99.90;;;;;;5072004;28;20612;-73
2022/11/21 03:27:28;;;;;;;91.38;31.08;;;3.70;99.90;;;;;;5069988;28;20076;-73
2022/11/21 03:29:53;;;;;;;82.53;31.88;;;3.70;99.90;;;;;;5058006;28;20059;-73
2022/11/21 03:32:19;;;;;;;74.25;31.42;;;3.70;99.90;;;;;;5071986;28;20437;-73
2022/11/21 03:34:44;;;;;;;59.42;29.70;;;3.70;99.90;;;;;;5071904;28;20480;-72
2022/11/21 03:37:10;;;;;;;62.67;29.13;;;3.70;99.90;;;;;;5070885;28;20492;-72
2022/11/21 03:39:35;;;;;;;120.13;34.35;;;3.70;99.90;;;;;;5071767;28;20104;-74
2022/11/21 03:42:01;;;;;;;108.82;32.85;;;3.70;99.90;;;;;;5071265;28;20369;-72
2022/11/21 03:44:28;;;;;;;60.83;28.80;;;3.70;99.90;;;;;;5065868;28;20029;-72
2022/11/21 03:46:54;;;;;;;64.07;30.88;;;3.70;99.90;;;;;;5052180;28;20166;-73
2022/11/21 03:49:19;;;;;;;61.00;31.40;;;3.70;99.90;;;;;;5054681;28;20100;-73
2022/11/21 03:51:45;;;;;;;61.55;31.08;;;3.70;99.90;;;;;;5063327;28;20025;-73
2022/11/21 03:54:10;;;;;;;71.10;31.88;;;3.70;99.90;;;;;;5064238;28;20029;-73
2022/11/21 03:56:38;;;;;;;63.20;30.25;;;3.70;99.90;;;;;;5071225;28;20024;-72
2022/11/21 03:59:04;;;;;;;64.05;30.58;;;3.70;99.90;;;;;;5075013;28;20034;-74
2022/11/21 04:01:30;;;;;;;66.15;31.13;;;3.70;99.90;;;;;;5074973;28;20020;-74
2022/11/21 04:03:55;;;;;;;64.65;30.92;;;3.70;99.90;;;;;;5060591;28;20024;-73
2022/11/21 04:06:21;;;;;;;61.65;31.73;;;3.60;99.90;;;;;;5075128;28;20086;-73
2022/11/21 04:08:49;;;;;;;62.70;30.23;;;3.70;99.90;;;;;;5075108;28;20392;-74
2022/11/21 04:11:15;;;;;;;75.85;31.40;;;3.60;99.90;;;;;;5074594;28;20101;-73
2022/11/21 04:13:41;;;;;;;74.32;32.60;;;3.60;99.90;;;;;;5075032;28;20419;-75
2022/11/21 04:16:07;;;;;;;59.67;29.58;;;3.60;99.90;;;;;;5075081;28;20087;-73
2022/11/21 04:18:36;;;;;;;66.50;31.13;;;3.60;99.90;;;;;;5074316;28;20059;-73
2022/11/21 04:21:04;;;;;;;88.57;30.70;;;3.60;99.90;;;;;;5061832;28;20020;-72
2022/11/21 04:23:30;;;;;;;122.10;32.47;;;3.60;99.90;;;;;;5075134;28;20056;-74
2022/11/21 04:25:56;;;;;;;77.45;31.13;;;3.50;99.90;;;;;;5073707;28;20051;-73
2022/11/21 04:28:21;;;;;;;63.28;29.98;;;3.60;99.90;;;;;;5074675;28;20060;-73
2022/11/21 04:30:50;;;;;;;60.92;29.40;;;3.50;99.90;;;;;;5075043;28;20420;-73
2022/11/21 04:33:17;;;;;;;105.03;30.98;;;3.60;99.90;;;;;;5074472;28;20078;-72
2022/11/21 04:35:43;;;;;;;120.10;31.48;;;3.60;99.90;;;;;;5074441;28;20052;-72
2022/11/21 04:38:12;;;;;;;100.57;30.38;;;3.60;99.90;;;;;;5073706;28;20017;-73
2022/11/21 04:40:38;;;;;;;91.03;29.98;;;3.60;99.90;;;;;;5074602;28;20024;-73
2022/11/21 04:43:04;;;;;;;74.70;30.35;;;3.60;99.90;;;;;;5074093;28;20091;-74
2022/11/21 04:45:30;;;;;;;70.97;27.90;;;3.60;99.90;;;;;;5073993;28;20081;-73
2022/11/21 04:47:56;;;;;;;118.22;30.50;;;3.60;99.90;;;;;;5056273;28;20392;-72
2022/11/21 04:50:22;;;;;;;143.95;30.13;;;3.60;99.90;;;;;;5074643;28;20016;-72
2022/11/21 04:52:53;;;;;;;101.50;26.67;;;3.60;99.90;;;;;;5072544;28;20115;-73
2022/11/21 04:55:19;;;;;;;123.55;27.67;;;3.60;99.90;;;;;;5062238;28;20025;-73
2022/11/21 04:57:45;;;;;;;133.07;27.75;;;3.60;99.90;;;;;;5074031;28;20021;-73
2022/11/21 05:00:12;;;;;;;90.00;27.50;;;3.60;99.90;;;;;;5073516;28;20085;-73
2022/11/21 05:02:38;;;;;;;81.13;25.95;;;3.60;99.90;;;;;;5074113;28;20059;-74
2022/11/21 05:05:04;;;;;;;75.95;27.90;;;3.50;99.90;;;;;;5072885;28;20047;-74
2022/11/21 05:07:29;;;;;;;84.35;25.63;;;3.60;99.90;;;;;;5073575;28;20376;-73
2022/11/21 05:09:55;;;;;;;76.40;27.40;;;3.60;99.90;;;;;;5073334;28;20021;-74
2022/11/21 05:15:05;;;;;;;70.35;26.80;;;3.60;99.90;;;;;;5073338;28;20085;-73
2022/11/21 05:17:30;;;;;;;148.50;28.83;;;3.50;99.90;;;;;;5074536;28;20036;-74
2022/11/21 05:19:56;;;;;;;81.28;27.60;;;3.60;99.90;;;;;;5074013;28;20055;-74
2022/11/21 05:22:21;;;;;;;114.00;28.85;;;3.60;99.90;;;;;;5073299;28;20039;-74
2022/11/21 05:24:47;;;;;;;75.82;28.98;;;3.60;99.90;;;;;;5073828;28;20029;-73
2022/11/21 05:27:12;;;;;;;112.15;30.80;;;3.60;99.90;;;;;;5073336;28;20115;-75
2022/11/21 05:29:38;;;;;;;70.70;29.23;;;3.60;99.90;;;;;;5073187;28;20393;-74
2022/11/21 05:32:03;;;;;;;80.10;27.27;;;3.60;99.90;;;;;;5073756;28;20029;-72
2022/11/21 05:34:29;;;;;;;65.97;28.80;;;3.60;99.90;;;;;;5072619;28;20020;-73
2022/11/21 05:36:57;;;;;;;187.32;31.15;;;3.60;99.90;;;;;;5072764;28;20059;-72
2022/11/21 05:39:23;;;;;;;60.10;26.70;;;3.60;99.90;;;;;;5073672;28;20103;-73
2022/11/21 05:41:49;;;;;;;57.33;27.83;;;3.70;99.90;;;;;;5072847;28;20107;-73
2022/11/21 05:44:14;;;;;;;56.30;26.70;;;3.60;99.90;;;;;;5073490;28;20034;-73
2022/11/21 05:46:40;;;;;;;49.30;24.38;;;3.60;99.90;;;;;;5073401;28;20076;-73
2022/11/21 05:49:07;;;;;;;47.88;23.77;;;3.70;99.90;;;;;;5072007;28;20064;-74
2022/11/21 05:51:32;;;;;;;48.17;24.75;;;3.70;99.90;;;;;;5073341;28;20059;-73
2022/11/21 05:53:58;;;;;;;78.93;25.30;;;3.70;99.90;;;;;;5062100;28;20044;-74
2022/11/21 05:56:24;;;;;;;106.85;25.17;;;3.70;99.90;;;;;;5069515;28;20024;-72
2022/11/21 05:58:50;;;;;;;123.38;25.83;;;3.70;99.90;;;;;;5072852;28;20024;-74
2022/11/21 06:03:25;;;;;;;37.83;23.45;;;3.70;99.90;;;;;;5072857;28;20443;-73
2022/11/21 06:04:01;;;;;;;41.83;22.00;;;3.70;99.90;;;;;;5071874;28;20153;-73
2022/11/21 06:06:26;;;;;;;37.83;22.13;;;3.60;99.90;;;;;;5072612;28;20040;-73
2022/11/21 06:08:52;;;;;;;44.85;21.95;;;3.60;99.90;;;;;;5072797;28;20025;-72
2022/11/21 06:11:18;;;;;;;61.30;23.25;;;3.70;99.90;;;;;;5072045;28;20033;-74
2022/11/21 06:13:44;;;;;;;37.53;22.38;;;3.70;99.90;;;;;;5059280;28;20062;-72
2022/11/21 06:16:11;;;;;;;79.00;23.40;;;3.60;99.90;;;;;;5055997;28;20537;-74
2022/11/21 06:18:39;;;;;;;47.20;20.70;;;3.60;99.90;;;;;;5053384;28;20531;-73
2022/11/21 06:21:13;;;;;;;68.53;22.88;;;3.50;99.90;;;;;;5050972;28;20045;-74
2022/11/21 06:23:40;;;;;;;39.65;22.40;;;3.50;99.90;;;;;;5054540;28;20103;-74
2022/11/21 06:26:09;;;;;;;58.72;24.02;;;3.50;99.90;;;;;;5053362;28;20488;-74
2022/11/21 06:28:37;;;;;;;35.67;19.65;;;3.50;99.90;;;;;;5054227;28;20033;-74
2022/11/21 06:31:14;;;;;;;40.17;20.65;;;3.40;99.90;;;;;;5055112;28;20032;-74
2022/11/21 06:33:43;;;;;;;46.67;22.80;;;3.40;99.90;;;;;;5057101;28;20059;-74
2022/11/21 06:36:11;;;;;;;38.15;21.75;;;3.40;99.90;;;;;;5056602;28;20128;-74
2022/11/21 06:38:37;;;;;;;38.42;23.35;;;3.40;99.90;;;;;;5053896;28;20399;-74
2022/11/21 06:41:11;;;;;;;45.05;22.95;;;3.40;99.90;;;;;;5060880;28;20032;-73
2022/11/21 06:43:37;;;;;;;41.55;23.10;;;3.40;99.90;;;;;;5052929;28;20029;-74
2022/11/21 06:46:03;;;;;;;38.00;21.70;;;3.40;99.90;;;;;;5054629;28;20020;-73
2022/11/21 06:48:30;;;;;;;35.00;22.00;;;3.50;99.90;;;;;;5052076;28;20109;-74
2022/11/21 06:50:55;;;;;;;37.70;22.55;;;3.50;99.90;;;;;;5056460;28;20021;-74
2022/11/21 06:53:21;;;;;;;38.45;22.17;;;3.50;99.90;;;;;;5051582;28;20036;-75
2022/11/21 06:55:47;;;;;;;34.88;21.15;;;3.50;99.90;;;;;;5057215;28;20460;-74
2022/11/21 06:58:12;;;;;;;39.55;22.60;;;3.50;99.90;;;;;;5054782;28;20048;-74
2022/11/21 07:00:38;;;;;;;33.55;20.52;;;3.60;99.90;;;;;;5060694;28;20035;-73
2022/11/21 07:03:03;;;;;;;35.58;21.33;;;3.60;99.90;;;;;;5075156;28;20020;-74
2022/11/21 07:05:30;;;;;;;34.88;20.98;;;3.60;99.90;;;;;;5072190;28;20017;-74
2022/11/21 07:08:00;;;;;;;37.10;20.95;;;3.70;99.90;;;;;;5071088;28;20075;-74
2022/11/21 07:10:26;;;;;;;37.13;22.02;;;3.60;99.90;;;;;;5072419;28;20017;-73
2022/11/21 07:15:39;;;;;;;39.35;20.65;;;3.60;99.90;;;;;;5071996;28;20434;-73
2022/11/21 07:18:05;;;;;;;32.30;18.73;;;3.80;99.90;;;;;;5071374;28;20017;-74
2022/11/21 07:20:30;;;;;;;29.15;18.02;;;3.70;99.90;;;;;;5054278;28;20029;-72
2022/11/21 07:22:56;;;;;;;33.47;19.83;;;3.70;99.90;;;;;;5063404;28;20464;-73
2022/11/21 07:25:22;;;;;;;37.75;18.63;;;3.80;99.90;;;;;;5071258;28;20396;-73
2022/11/21 07:27:47;;;;;;;27.27;18.13;;;3.80;99.90;;;;;;5072189;28;20361;-73
2022/11/21 07:30:13;;;;;;;31.23;18.60;;;3.90;99.90;;;;;;5075531;28;20025;-75
2022/11/21 07:32:39;;;;;;;32.80;19.02;;;3.90;99.90;;;;;;5077681;28;20032;-74
2022/11/21 07:35:05;;;;;;;25.27;18.42;;;4.00;99.90;;;;;;5075464;28;20065;-75
2022/11/21 07:37:31;;;;;;;29.77;17.48;;;4.00;99.90;;;;;;5076468;28;20136;-76
2022/11/21 07:39:57;;;;;;;25.63;16.10;;;4.00;99.90;;;;;;5076734;28;20052;-77
2022/11/21 07:42:22;;;;;;;26.35;15.57;;;4.10;99.90;;;;;;5075747;28;20537;-76
2022/11/21 07:44:48;;;;;;;24.17;15.80;;;4.10;99.90;;;;;;5076290;28;20020;-76
2022/11/21 07:47:13;;;;;;;26.15;15.35;;;4.10;99.90;;;;;;5075427;28;20032;-76
2022/11/21 07:49:42;;;;;;;26.48;16.85;;;4.20;99.90;;;;;;5075308;28;20464;-75
2022/11/21 07:52:07;;;;;;;18.67;14.25;;;4.30;99.90;;;;;;5078071;28;20500;-77
2022/11/21 07:54:33;;;;;;;21.95;15.20;;;4.30;99.90;;;;;;5062724;28;20024;-74
2022/11/21 07:56:58;;;;;;;27.15;17.55;;;4.40;99.90;;;;;;5062129;28;20025;-76
2022/11/21 07:59:24;;;;;;;25.67;15.77;;;4.40;99.90;;;;;;5058019;28;20033;-76
2022/11/21 08:01:51;;;;;;;23.00;14.52;;;4.50;99.90;;;;;;5065554;28;20028;-76
2022/11/21 08:04:16;;;;;;;25.02;15.70;;;4.40;99.90;;;;;;5079435;28;20028;-74
2022/11/21 08:06:42;;;;;;;25.80;15.40;;;4.50;99.90;;;;;;5081827;28;20385;-74
2022/11/21 08:09:07;;;;;;;22.63;14.50;;;4.50;99.90;;;;;;5069259;28;20017;-75
2022/11/21 08:11:35;;;;;;;23.40;16.38;;;4.50;99.90;;;;;;5080947;28;20081;-76
2022/11/21 08:14:01;;;;;;;26.10;14.93;;;4.40;99.90;;;;;;5089391;28;20434;-76
2022/11/21 08:16:28;;;;;;;25.65;14.88;;;4.40;99.90;;;;;;5085945;28;20032;-76
2022/11/21 08:18:53;;;;;;;23.60;16.17;;;4.40;99.90;;;;;;5080346;28;20112;-75
2022/11/21 08:21:19;;;;;;;27.55;16.27;;;4.40;99.90;;;;;;5083979;28;20044;-76
2022/11/21 08:23:45;;;;;;;24.77;16.48;;;4.40;99.90;;;;;;5081771;28;20158;-76
2022/11/21 08:26:10;;;;;;;28.08;16.40;;;4.40;99.90;;;;;;5081208;28;20016;-76
2022/11/21 08:28:36;;;;;;;30.80;16.52;;;4.40;99.90;;;;;;5084912;28;20028;-77
2022/11/21 08:31:05;;;;;;;25.80;15.60;;;4.40;99.90;;;;;;5079675;28;20025;-75
2022/11/21 08:33:31;;;;;;;24.40;16.48;;;4.40;99.90;;;;;;5080436;28;20040;-76
2022/11/21 08:35:57;;;;;;;29.20;17.23;;;4.40;99.90;;;;;;5064120;28;20082;-76
2022/11/21 08:38:23;;;;;;;28.67;15.98;;;4.50;99.90;;;;;;5070675;28;20020;-76
2022/11/21 08:42:01;;;;;;;38.22;21.30;;;4.50;99.90;;;;;;5071969;28;20024;-74
2022/11/21 08:43:40;;;;;;;45.78;21.42;;;4.60;99.90;;;;;;5073152;28;20500;-75
2022/11/21 08:46:06;;;;;;;28.90;14.90;;;4.60;99.90;;;;;;5073571;28;20059;-75
2022/11/21 08:48:31;;;;;;;23.98;14.48;;;4.60;99.90;;;;;;5072332;28;20036;-75
2022/11/21 08:50:57;;;;;;;23.65;15.52;;;4.70;99.90;;;;;;5073537;28;20029;-76
2022/11/21 08:53:22;;;;;;;24.05;14.90;;;4.80;99.90;;;;;;5068620;28;20112;-76
2022/11/21 08:55:48;;;;;;;22.90;13.90;;;4.80;99.90;;;;;;5072929;28;20017;-76
2022/11/21 08:58:14;;;;;;;29.50;15.70;;;4.90;99.90;;;;;;5072770;28;20025;-75
2022/11/21 09:00:39;;;;;;;24.70;16.25;;;4.90;99.90;;;;;;5060430;28;20036;-76
2022/11/21 09:03:05;;;;;;;23.60;15.07;;;5.00;99.90;;;;;;5061720;28;20029;-76
2022/11/21 09:05:32;;;;;;;27.30;15.85;;;5.00;99.90;;;;;;5061799;28;20029;-75
2022/11/21 09:07:57;;;;;;;34.00;15.88;;;5.10;99.90;;;;;;5063113;28;20044;-76
2022/11/21 09:10:28;;;;;;;28.90;16.15;;;5.20;99.90;;;;;;5063229;28;20021;-73
2022/11/21 09:12:57;;;;;;;26.90;16.08;;;5.30;99.90;;;;;;5070940;28;20039;-76
2022/11/21 09:18:07;;;;;;;25.33;13.30;;;5.40;99.90;;;;;;5071708;28;20093;-75
2022/11/21 09:20:41;;;;;;;23.33;13.60;;;5.50;99.90;;;;;;5070834;28;20635;-75
2022/11/21 09:23:11;;;;;;;20.63;11.23;;;5.60;99.90;;;;;;5068113;28;20024;-77
2022/11/21 09:25:37;;;;;;;17.45;11.38;;;5.60;99.90;;;;;;5058656;28;20025;-76
2022/11/21 09:28:05;;;;;;;18.27;10.60;;;5.60;99.90;;;;;;5060538;28;20039;-76
2022/11/21 09:30:31;;;;;;;16.15;9.98;;;5.70;99.90;;;;;;5072100;28;20484;-78
2022/11/21 09:33:04;;;;;;;18.80;10.45;;;5.70;99.90;;;;;;5071522;28;20035;-78
2022/11/21 09:35:30;;;;;;;20.65;10.48;;;5.80;99.90;;;;;;5075206;28;20485;-77
2022/11/21 09:37:55;;;;;;;20.65;10.65;;;5.90;99.90;;;;;;5071723;28;20043;-78
2022/11/21 09:40:25;;;;;;;26.33;9.32;;;6.00;99.90;;;;;;5071426;28;20029;-77
2022/11/21 09:43:35;;;;;;;15.23;9.68;;;6.00;99.90;;;;;;5075970;28;20020;-76
2022/11/21 09:46:14;;;;;;;18.00;9.10;;;6.00;99.90;;;;;;5075485;28;20028;-75
2022/11/21 09:48:54;;;;;;;25.92;9.38;;;6.10;99.90;;;;;;5072493;28;20044;-75
2022/11/21 09:51:22;;;;;;;21.08;9.65;;;6.10;99.90;;;;;;5071758;28;20036;-77
2022/11/21 09:53:56;;;;;;;20.60;9.32;;;6.20;99.90;;;;;;5067510;28;20036;-77
2022/11/21 09:56:22;;;;;;;15.15;8.48;;;6.20;99.90;;;;;;5071231;28;20526;-78
2022/11/21 09:59:14;;;;;;;26.58;9.60;;;6.50;99.90;;;;;;5072313;28;20032;-76
2022/11/21 10:01:39;;;;;;;24.77;8.85;;;6.40;99.90;;;;;;5069490;28;20020;-77
2022/11/21 10:04:05;;;;;;;27.65;9.90;;;6.40;99.90;;;;;;5071923;28;20077;-77
2022/11/21 10:06:37;;;;;;;20.27;9.55;;;6.40;99.90;;;;;;5063907;28;20028;-77
2022/11/21 10:09:15;;;;;;;17.98;9.13;;;6.50;99.90;;;;;;5066862;28;20062;-75
2022/11/21 10:14:44;;;;;;;19.23;9.35;;;6.50;99.90;;;;;;5073949;28;20106;-77
2022/11/21 10:17:29;;;;;;;19.00;9.48;;;6.50;99.90;;;;;;5075744;28;20111;-76
2022/11/21 10:20:24;;;;;;;17.80;9.55;;;6.50;99.90;;;;;;5074544;28;20029;-76
2022/11/21 10:23:02;;;;;;;18.17;8.98;;;6.60;99.90;;;;;;5065926;28;20021;-71
2022/11/21 10:25:38;;;;;;;18.40;8.77;;;6.70;99.90;;;;;;5057667;28;20452;-77
2022/11/21 10:28:18;;;;;;;13.52;9.07;;;6.70;99.90;;;;;;5071036;28;20040;-75
2022/11/21 10:30:45;;;;;;;15.82;9.75;;;6.80;99.90;;;;;;5071973;28;20043;-76
2022/11/21 10:33:22;;;;;;;16.45;8.40;;;6.90;99.90;;;;;;5070973;28;20446;-77
2022/11/21 10:35:54;;;;;;;23.52;9.18;;;7.00;99.90;;;;;;5071357;28;20036;-76
2022/11/21 10:38:21;;;;;;;20.27;8.85;;;7.10;99.90;;;;;;5072556;28;20033;-76
2022/11/21 10:41:00;;;;;;;11.82;7.43;;;7.10;99.90;;;;;;5073067;28;20040;-77
2022/11/21 10:46:38;;;;;;;15.52;8.60;;;7.10;99.90;;;;;;5072784;28;20039;-77
2022/11/21 10:49:04;;;;;;;11.45;7.43;;;7.10;99.90;;;;;;5074299;28;20426;-77
2022/11/21 10:51:45;;;;;;;18.75;8.13;;;7.10;99.90;;;;;;5072382;28;20017;-76
2022/11/21 10:57:13;;;;;;;20.42;7.40;;;7.20;99.90;;;;;;5070287;28;20083;-75
2022/11/21 10:59:39;;;;;;;18.75;7.25;;;7.20;99.90;;;;;;5066685;28;20541;-76
2022/11/21 11:02:13;;;;;;;15.98;7.35;;;7.20;99.90;;;;;;5070117;28;20052;-76
2022/11/21 11:04:39;;;;;;;15.80;7.32;;;7.20;99.90;;;;;;5069995;28;20020;-76
2022/11/21 11:07:24;;;;;;;14.98;6.78;;;7.20;99.90;;;;;;5069614;28;20119;-76
2022/11/21 11:09:51;;;;;;;13.68;6.43;;;7.20;99.90;;;;;;5067605;28;20037;-76
2022/11/21 11:15:22;;;;;;;16.38;6.10;;;7.50;99.90;;;;;;5070387;28;20028;-75
2022/11/21 11:18:00;;;;;;;13.52;6.07;;;7.60;99.90;;;;;;5070697;28;20111;-75
2022/11/21 11:20:41;;;;;;;12.05;6.22;;;7.70;99.90;;;;;;5071149;28;20031;-77
2022/11/21 11:23:32;;;;;;;15.10;6.53;;;7.80;99.90;;;;;;5070956;28;20020;-76
2022/11/21 11:25:59;;;;;;;11.20;5.63;;;8.80;99.90;;;;;;5064268;28;20392;-76
2022/11/21 11:28:32;;;;;;;12.73;4.90;;;8.00;99.90;;;;;;5072641;28;20032;-75
2022/11/21 11:30:57;;;;;;;8.70;4.82;;;8.00;99.90;;;;;;5072289;28;20548;-75
2022/11/21 11:33:30;;;;;;;7.55;3.90;;;8.00;99.90;;;;;;5073064;28;20526;-76
2022/11/21 11:36:09;;;;;;;7.38;3.58;;;8.10;99.90;;;;;;5072469;28;20047;-76
2022/11/21 11:38:35;;;;;;;7.85;4.07;;;8.20;99.90;;;;;;5071610;28;20020;-76
2022/11/21 11:41:11;;;;;;;7.90;3.53;;;8.20;99.90;;;;;;5069748;28;20364;-76
2022/11/21 11:50:09;;;;;;;6.78;2.65;;;8.30;99.90;;;;;;5068521;28;20036;-75
2022/11/21 11:52:21;;;;;;;10.27;4.07;;;8.30;99.90;;;;;;5073142;28;20052;-76
2022/11/21 11:54:54;;;;;;;11.87;3.33;;;8.30;99.90;;;;;;5066458;28;20039;-75
2022/11/21 11:57:21;;;;;;;7.03;3.42;;;8.30;99.90;;;;;;5070090;28;20032;-76
2022/11/21 11:59:56;;;;;;;8.23;2.92;;;8.30;99.90;;;;;;5065944;28;20102;-75
2022/11/21 12:02:40;;;;;;;6.80;2.63;;;8.30;99.90;;;;;;5069590;28;20019;-75
2022/11/21 12:05:18;;;;;;;7.20;3.10;;;8.40;99.90;;;;;;5069084;28;20033;-76
2022/11/21 12:07:50;;;;;;;6.72;2.88;;;8.30;99.90;;;;;;5057987;28;20040;-75
2022/11/21 12:10:34;;;;;;;6.57;2.55;;;8.20;99.90;;;;;;5060945;28;20043;-76
2022/11/21 12:13:12;;;;;;;10.15;3.75;;;8.20;99.90;;;;;;5061015;28;20477;-75
2022/11/21 12:15:49;;;;;;;7.05;2.95;;;8.10;99.90;;;;;;5063959;28;20040;-77
2022/11/21 12:18:14;;;;;;;4.45;2.65;;;8.00;99.90;;;;;;5079396;28;20044;-77
2022/11/21 12:21:04;;;;;;;7.53;2.85;;;7.90;99.90;;;;;;5069736;28;20059;-75
2022/11/21 12:23:53;;;;;;;6.10;2.70;;;7.90;99.90;;;;;;5072290;28;20032;-75
2022/11/21 12:26:52;;;;;;;10.88;3.50;;;7.90;99.90;;;;;;5075676;28;20025;-75
2022/11/21 12:29:39;;;;;;;6.47;3.25;;;7.80;99.90;;;;;;5078910;28;20066;-76
2022/11/21 12:32:11;;;;;;;9.20;3.08;;;7.80;99.90;;;;;;5076601;28;20128;-76
2022/11/21 12:35:01;;;;;;;9.75;3.13;;;7.80;99.90;;;;;;5074477;28;20028;-76
2022/11/21 12:37:42;;;;;;;4.20;2.43;;;7.80;99.90;;;;;;5075121;28;20173;-76
2022/11/21 12:40:19;;;;;;;9.70;2.90;;;7.90;99.90;;;;;;5075515;28;20258;-76
2022/11/21 12:42:59;;;;;;;4.07;2.40;;;7.90;99.90;;;;;;5078827;28;20155;-76
2022/11/21 12:46:12;;;;;;;7.47;2.47;;;8.80;99.90;;;;;;5068619;28;20437;-76
2022/11/21 12:54:51;;;;;;;10.73;3.50;;;8.00;99.90;;;;;;5069739;28;20039;-75
2022/11/21 12:57:25;;;;;;;5.18;3.00;;;8.00;99.90;;;;;;5073573;28;20495;-76
2022/11/21 13:00:00;;;;;;;7.45;2.97;;;8.10;99.90;;;;;;5072476;28;20036;-77
2022/11/21 13:03:15;;;;;;;4.22;2.92;;;8.10;99.90;;;;;;5072822;28;20491;-75
2022/11/21 13:05:45;;;;;;;6.53;3.33;;;8.10;99.90;;;;;;5070704;28;20066;-76
2022/11/21 13:08:23;;;;;;;8.13;3.22;;;8.20;99.90;;;;;;5072760;28;20031;-76
2022/11/21 13:11:57;;;;;;;8.02;2.80;;;8.30;99.90;;;;;;5073009;28;20472;-76
2022/11/21 13:13:44;;;;;;;7.80;2.88;;;8.30;99.90;;;;;;5071268;28;20052;-76
2022/11/21 13:16:35;;;;;;;7.45;2.60;;;8.30;99.90;;;;;;5076125;28;20044;-76
2022/11/21 13:19:09;;;;;;;8.57;2.50;;;8.30;99.90;;;;;;5074992;28;20025;-76
2022/11/21 13:21:49;;;;;;;9.43;2.33;;;8.40;99.90;;;;;;5071885;28;20032;-74
2022/11/21 13:24:46;;;;;;;8.02;2.53;;;8.40;99.90;;;;;;5077025;28;20031;-76
2022/11/21 13:27:34;;;;;;;8.48;3.13;;;8.40;99.90;;;;;;5069809;28;20036;-76